createdAt,value
2023-05-09T00:02:14.668Z,8.27
2023-05-09T00:04:41.619Z,8.83
2023-05-09T00:07:10.380Z,7.53
2023-05-09T00:09:37.032Z,7.93
2023-05-09T00:12:04.147Z,7.57
2023-05-09T00:14:30.784Z,7.97
2023-05-09T00:16:59.239Z,8.70
2023-05-09T00:19:26.041Z,7.77
2023-05-09T00:21:52.656Z,7.57
2023-05-09T00:24:19.276Z,7.43
2023-05-09T00:26:45.966Z,8.80
2023-05-09T00:29:12.649Z,8.83
2023-05-09T00:31:39.296Z,8.07
2023-05-09T00:34:05.930Z,8.27
2023-05-09T00:36:32.714Z,8.63
2023-05-09T00:38:59.389Z,8.37
2023-05-09T00:41:26.034Z,8.50
2023-05-09T00:43:52.772Z,8.80
2023-05-09T00:46:19.776Z,8.80
2023-05-09T00:48:46.775Z,8.40
2023-05-09T00:51:13.610Z,8.43
2023-05-09T00:53:40.747Z,8.13
2023-05-09T00:56:08.432Z,8.57
2023-05-09T00:58:35.127Z,8.17
2023-05-09T01:01:03.707Z,8.47
2023-05-09T01:03:31.607Z,7.73
2023-05-09T01:06:39.729Z,9.07
2023-05-09T01:09:29.227Z,8.07
2023-05-09T01:12:16.442Z,7.73
2023-05-09T01:15:08.405Z,8.40
2023-05-09T01:17:48.801Z,8.43
2023-05-09T01:20:30.402Z,8.10
2023-05-09T01:23:27.987Z,7.83
2023-05-09T01:26:17.815Z,9.00
2023-05-09T01:29:31.697Z,7.97
2023-05-09T01:32:02.936Z,9.07
2023-05-09T01:34:32.466Z,8.63
2023-05-09T01:37:01.168Z,8.67
2023-05-09T01:39:29.940Z,8.50
2023-05-09T01:41:59.443Z,8.83
2023-05-09T01:44:32.343Z,8.20
2023-05-09T01:47:01.138Z,8.43
2023-05-09T01:49:31.457Z,8.00
2023-05-09T01:52:01.221Z,8.40
2023-05-09T01:54:28.812Z,8.33
2023-05-09T01:56:55.993Z,8.80
2023-05-09T01:59:23.698Z,9.23
2023-05-09T02:01:50.792Z,9.63
2023-05-09T02:04:18.838Z,8.77
2023-05-09T02:06:50.607Z,8.60
2023-05-09T02:09:19.419Z,8.77
2023-05-09T02:11:46.860Z,8.30
2023-05-09T02:14:14.253Z,8.40
2023-05-09T02:16:41.571Z,8.43
2023-05-09T02:19:08.932Z,9.20
2023-05-09T02:21:36.199Z,8.97
2023-05-09T02:24:03.560Z,8.50
2023-05-09T02:26:30.848Z,8.80
2023-05-09T02:28:58.773Z,7.97
2023-05-09T02:31:29.613Z,8.10
2023-05-09T02:33:57.320Z,9.27
2023-05-09T02:36:24.462Z,9.03
2023-05-09T02:38:51.550Z,10.53
2023-05-09T02:41:18.629Z,11.60
2023-05-09T02:43:45.948Z,9.50
2023-05-09T02:46:12.734Z,10.10
2023-05-09T02:48:39.595Z,9.63
2023-05-09T02:51:06.341Z,9.40
2023-05-09T02:53:33.286Z,9.53
2023-05-09T02:55:59.961Z,10.40
2023-05-09T02:58:26.699Z,9.87
2023-05-09T03:00:53.394Z,9.87
2023-05-09T03:03:22.112Z,10.47
2023-05-09T03:05:49.907Z,10.43
2023-05-09T03:08:16.617Z,10.30
2023-05-09T03:10:44.172Z,9.97
2023-05-09T03:13:11.105Z,8.60
2023-05-09T03:15:38.194Z,9.47
2023-05-09T03:18:06.251Z,8.90
2023-05-09T03:20:33.106Z,9.27
2023-05-09T03:23:00.137Z,11.03
2023-05-09T03:25:26.933Z,11.10
2023-05-09T03:27:53.599Z,11.07
2023-05-09T03:30:20.380Z,12.17
2023-05-09T03:32:49.216Z,11.00
2023-05-09T03:35:16.291Z,12.40
2023-05-09T03:37:43.472Z,11.30
2023-05-09T03:40:10.830Z,11.60
2023-05-09T03:42:45.771Z,12.13
2023-05-09T03:45:12.570Z,11.70
2023-05-09T03:47:39.688Z,11.87
2023-05-09T03:50:07.142Z,11.97
2023-05-09T03:52:34.590Z,11.47
2023-05-09T03:55:01.852Z,12.30
2023-05-09T03:57:34.553Z,11.90
2023-05-09T04:00:01.627Z,11.90
2023-05-09T04:02:36.011Z,11.23
2023-05-09T04:05:03.277Z,11.30
2023-05-09T04:07:31.589Z,10.50
2023-05-09T04:09:58.470Z,11.33
2023-05-09T04:12:25.177Z,12.00
2023-05-09T04:14:52.234Z,11.40
2023-05-09T04:17:19.460Z,10.73
2023-05-09T04:19:46.214Z,11.80
2023-05-09T04:22:12.924Z,11.53
2023-05-09T04:24:39.666Z,11.90
2023-05-09T04:27:06.806Z,11.60
2023-05-09T04:29:35.250Z,12.07
2023-05-09T04:32:02.503Z,12.33
2023-05-09T04:34:29.677Z,12.20
2023-05-09T04:36:59.899Z,12.27
2023-05-09T04:39:26.600Z,13.00
2023-05-09T04:42:02.621Z,12.77
2023-05-09T04:44:29.267Z,14.30
2023-05-09T04:46:58.091Z,13.70
2023-05-09T04:49:24.891Z,12.77
2023-05-09T04:51:51.800Z,13.03
2023-05-09T04:54:18.584Z,14.07
2023-05-09T04:56:45.796Z,13.50
2023-05-09T04:59:13.442Z,13.17
2023-05-09T05:01:40.280Z,12.60
2023-05-09T05:04:07.078Z,12.13
2023-05-09T05:06:33.936Z,12.60
2023-05-09T05:09:00.858Z,13.23
2023-05-09T05:11:27.958Z,12.30
2023-05-09T05:13:55.261Z,12.10
2023-05-09T05:16:22.576Z,13.10
2023-05-09T05:18:49.505Z,12.27
2023-05-09T05:21:17.598Z,12.90
2023-05-09T05:23:44.972Z,11.93
2023-05-09T05:26:12.815Z,12.70
2023-05-09T05:28:40.067Z,12.40
2023-05-09T05:31:07.104Z,12.43
2023-05-09T05:33:33.974Z,12.90
2023-05-09T05:36:02.101Z,11.87
2023-05-09T05:38:28.805Z,12.53
2023-05-09T05:40:57.059Z,12.57
2023-05-09T05:43:25.090Z,14.00
2023-05-09T05:45:51.881Z,12.47
2023-05-09T05:48:22.169Z,13.37
2023-05-09T05:50:48.900Z,13.13
2023-05-09T05:53:18.734Z,13.63
2023-05-09T05:55:46.801Z,13.57
2023-05-09T05:58:13.714Z,14.40
2023-05-09T06:00:40.504Z,13.77
2023-05-09T06:03:08.773Z,14.30
2023-05-09T06:05:44.385Z,13.07
2023-05-09T06:08:12.035Z,14.07
2023-05-09T06:10:38.738Z,14.00
2023-05-09T06:13:05.484Z,14.10
2023-05-09T06:15:33.184Z,12.70
2023-05-09T06:18:00.219Z,13.70
2023-05-09T06:20:27.982Z,13.97
2023-05-09T06:22:54.785Z,13.60
2023-05-09T06:25:21.553Z,15.20
2023-05-09T06:27:48.181Z,17.00
2023-05-09T06:30:25.449Z,15.80
2023-05-09T06:32:54.857Z,16.07
2023-05-09T06:35:21.859Z,16.87
2023-05-09T06:37:49.186Z,15.07
2023-05-09T06:40:17.180Z,15.13
2023-05-09T06:42:44.928Z,15.77
2023-05-09T06:45:12.036Z,14.93
2023-05-09T06:47:38.753Z,15.20
2023-05-09T06:50:06.054Z,15.30
2023-05-09T06:52:32.664Z,15.93
2023-05-09T06:54:59.385Z,14.83
2023-05-09T06:57:26.258Z,14.07
2023-05-09T06:59:52.898Z,14.30
2023-05-09T07:02:19.687Z,14.37
2023-05-09T07:04:46.536Z,14.90
2023-05-09T07:07:13.270Z,16.10
2023-05-09T07:09:39.952Z,15.43
2023-05-09T07:12:06.710Z,14.83
2023-05-09T07:14:33.368Z,14.53
2023-05-09T07:17:13.697Z,14.00
2023-05-09T07:19:45.440Z,13.53
2023-05-09T07:22:13.398Z,13.33
2023-05-09T07:24:40.298Z,13.03
2023-05-09T07:27:07.043Z,12.43
2023-05-09T07:29:33.826Z,14.47
2023-05-09T07:32:00.631Z,13.23
2023-05-09T07:34:27.331Z,13.63
2023-05-09T07:36:54.165Z,14.27
2023-05-09T07:39:20.936Z,12.93
2023-05-09T07:41:48.765Z,13.67
2023-05-09T07:44:15.859Z,14.30
2023-05-09T07:46:42.805Z,13.90
2023-05-09T07:49:09.670Z,13.77
2023-05-09T07:51:36.588Z,14.90
2023-05-09T07:54:03.637Z,14.37
2023-05-09T07:56:30.504Z,13.67
2023-05-09T07:58:57.186Z,14.97
2023-05-09T08:01:23.905Z,14.63
2023-05-09T08:03:50.724Z,13.40
2023-05-09T08:06:17.630Z,18.17
2023-05-09T08:08:44.296Z,15.83
2023-05-09T08:11:10.984Z,17.83
2023-05-09T08:13:37.672Z,15.30
2023-05-09T08:16:04.685Z,15.43
2023-05-09T08:18:31.592Z,14.77
2023-05-09T08:20:59.549Z,38.40
2023-05-09T08:23:26.827Z,23.27
2023-05-09T08:25:54.645Z,20.77
2023-05-09T08:28:24.138Z,15.43
2023-05-09T08:30:51.821Z,17.13
2023-05-09T08:33:18.881Z,18.43
2023-05-09T08:35:46.063Z,40.93
2023-05-09T08:38:12.752Z,23.50
2023-05-09T08:40:40.989Z,23.13
2023-05-09T08:43:08.543Z,17.10
2023-05-09T08:45:40.190Z,19.10
2023-05-09T08:48:08.328Z,32.17
2023-05-09T08:50:35.560Z,28.03
2023-05-09T08:53:02.650Z,23.43
2023-05-09T08:55:29.552Z,22.27
2023-05-09T08:57:57.839Z,19.03
2023-05-09T09:00:26.279Z,20.50
2023-05-09T09:02:55.139Z,17.37
2023-05-09T09:05:40.063Z,15.00
2023-05-09T09:08:08.986Z,17.73
2023-05-09T09:10:36.248Z,18.10
2023-05-09T09:13:04.859Z,18.93
2023-05-09T09:15:36.770Z,16.67
2023-05-09T09:18:10.111Z,17.77
2023-05-09T09:20:58.264Z,17.67
2023-05-09T09:23:27.218Z,23.70
2023-05-09T09:26:02.143Z,18.43
2023-05-09T09:28:29.656Z,25.33
2023-05-09T09:30:57.098Z,17.30
2023-05-09T09:33:25.701Z,16.43
2023-05-09T09:35:54.359Z,16.10
2023-05-09T09:38:23.169Z,19.40
2023-05-09T09:40:56.727Z,25.77
2023-05-09T09:43:31.112Z,17.27
2023-05-09T09:46:01.733Z,19.37
2023-05-09T09:48:35.394Z,21.47
2023-05-09T09:51:08.299Z,22.67
2023-05-09T09:53:42.379Z,15.33
2023-05-09T09:56:09.447Z,16.67
2023-05-09T09:58:36.475Z,16.60
2023-05-09T10:01:07.362Z,21.17
2023-05-09T10:03:41.967Z,24.03
2023-05-09T10:06:16.743Z,28.23
2023-05-09T10:08:47.008Z,22.77
2023-05-09T10:11:14.130Z,22.90
2023-05-09T10:13:42.441Z,22.60
2023-05-09T10:16:10.088Z,17.03
2023-05-09T10:18:39.576Z,25.93
2023-05-09T10:21:12.045Z,18.13
2023-05-09T10:23:45.661Z,26.03
2023-05-09T10:26:23.550Z,16.33
2023-05-09T10:28:55.854Z,14.77
2023-05-09T10:31:27.217Z,17.77
2023-05-09T10:33:55.859Z,16.10
2023-05-09T10:36:25.921Z,17.10
2023-05-09T10:38:56.126Z,18.30
2023-05-09T10:41:23.604Z,14.27
2023-05-09T10:43:50.459Z,20.87
2023-05-09T10:46:17.849Z,17.27
2023-05-09T10:48:45.597Z,24.10
2023-05-09T10:51:13.040Z,28.65
2023-05-09T10:53:45.203Z,30.17
2023-05-09T10:56:32.321Z,25.10
2023-05-09T10:59:00.138Z,16.50
2023-05-09T11:01:37.500Z,15.35
2023-05-09T11:04:14.433Z,9.13
2023-05-09T11:06:41.721Z,16.77
2023-05-09T11:09:28.042Z,12.80
2023-05-09T11:12:08.666Z,8.73
2023-05-09T11:14:35.549Z,8.60
2023-05-09T11:17:04.387Z,13.30
2023-05-09T11:19:47.625Z,11.40
2023-05-09T11:22:22.619Z,11.63
2023-05-09T11:25:00.171Z,11.07
2023-05-09T11:27:28.496Z,11.10
2023-05-09T11:29:59.212Z,9.95
2023-05-09T11:32:32.764Z,11.82
2023-05-09T11:35:17.474Z,7.50
2023-05-09T11:37:49.827Z,8.38
2023-05-09T11:40:18.577Z,10.30
2023-05-09T11:42:50.554Z,11.02
2023-05-09T11:45:18.007Z,10.70
2023-05-09T11:47:45.870Z,11.65
2023-05-09T11:50:14.231Z,10.35
2023-05-09T11:52:41.829Z,8.98
2023-05-09T11:55:12.504Z,12.52
2023-05-09T11:57:51.121Z,25.35
2023-05-09T12:00:20.382Z,12.90
2023-05-09T12:02:48.025Z,17.13
2023-05-09T12:05:17.488Z,8.18
2023-05-09T12:07:45.262Z,11.10
2023-05-09T12:10:14.313Z,9.13
2023-05-09T12:12:51.294Z,8.20
2023-05-09T12:15:19.840Z,8.13
2023-05-09T12:17:50.391Z,8.13
2023-05-09T12:20:18.791Z,7.97
2023-05-09T12:22:53.238Z,7.37
2023-05-09T12:25:19.975Z,7.10
2023-05-09T12:27:47.578Z,7.10
2023-05-09T12:30:16.053Z,6.38
2023-05-09T12:32:43.608Z,7.35
2023-05-09T12:35:11.147Z,31.03
2023-05-09T12:37:38.394Z,17.40
2023-05-09T12:40:08.680Z,12.63
2023-05-09T12:42:35.835Z,6.70
2023-05-09T12:45:04.282Z,7.60
2023-05-09T12:47:34.932Z,10.30
2023-05-09T12:50:04.467Z,7.80
2023-05-09T12:52:50.181Z,7.20
2023-05-09T12:55:21.430Z,11.43
2023-05-09T12:58:03.766Z,8.33
2023-05-09T13:00:43.290Z,6.90
2023-05-09T13:03:25.232Z,6.17
2023-05-09T13:06:02.182Z,36.47
2023-05-09T13:08:29.328Z,24.88
2023-05-09T13:11:08.071Z,6.90
2023-05-09T13:13:42.428Z,5.68
2023-05-09T13:16:10.763Z,6.20
2023-05-09T13:18:38.873Z,7.13
2023-05-09T13:21:05.853Z,5.63
2023-05-09T13:23:32.613Z,5.97
2023-05-09T13:25:59.267Z,6.10
2023-05-09T13:28:25.931Z,6.40
2023-05-09T13:30:52.652Z,6.63
2023-05-09T13:33:25.906Z,6.00
2023-05-09T13:35:53.745Z,6.33
2023-05-09T13:38:20.530Z,6.60
2023-05-09T13:40:47.322Z,7.00
2023-05-09T13:43:13.957Z,6.90
2023-05-09T13:45:40.651Z,6.87
2023-05-09T13:48:07.418Z,6.90
2023-05-09T13:50:34.279Z,7.53
2023-05-09T13:53:01.015Z,7.37
2023-05-09T13:55:27.794Z,7.53
2023-05-09T13:57:54.818Z,6.70
2023-05-09T14:00:22.112Z,6.30
2023-05-09T14:02:48.949Z,6.67
2023-05-09T14:05:16.773Z,6.00
2023-05-09T14:07:43.671Z,6.30
2023-05-09T14:10:12.304Z,6.80
2023-05-09T14:12:40.424Z,7.20
2023-05-09T14:15:08.256Z,6.43
2023-05-09T14:17:35.097Z,7.00
2023-05-09T14:20:02.209Z,7.73
2023-05-09T14:22:31.071Z,7.03
2023-05-09T14:24:58.539Z,7.67
2023-05-09T14:27:26.165Z,6.80
2023-05-09T14:29:53.017Z,7.60
2023-05-09T14:32:19.692Z,7.30
2023-05-09T14:34:49.322Z,7.03
2023-05-09T14:37:16.153Z,21.00
2023-05-09T14:39:43.950Z,50.93
2023-05-09T14:42:11.638Z,10.17
2023-05-09T14:44:38.930Z,24.90
2023-05-09T14:47:06.292Z,32.47
2023-05-09T14:49:33.227Z,23.27
2023-05-09T14:52:00.280Z,16.60
2023-05-09T14:54:27.120Z,18.20
2023-05-09T14:56:53.869Z,7.73
2023-05-09T14:59:21.014Z,6.33
2023-05-09T15:01:47.879Z,6.17
2023-05-09T15:04:14.562Z,5.87
2023-05-09T15:06:41.320Z,5.90
2023-05-09T15:09:08.521Z,5.03
2023-05-09T15:11:46.786Z,10.47
2023-05-09T15:14:15.235Z,10.90
2023-05-09T15:16:42.145Z,14.13
2023-05-09T15:19:08.922Z,32.03
2023-05-09T15:21:36.040Z,9.13
2023-05-09T15:24:04.707Z,7.90
2023-05-09T15:26:32.053Z,7.60
2023-05-09T15:28:58.795Z,10.20
2023-05-09T15:31:25.816Z,10.83
2023-05-09T15:33:52.737Z,9.33
2023-05-09T15:36:19.491Z,7.40
2023-05-09T15:38:49.208Z,6.47
2023-05-09T15:41:16.852Z,5.77
2023-05-09T15:43:43.752Z,5.90
2023-05-09T15:46:10.703Z,5.10
2023-05-09T15:48:37.549Z,5.50
2023-05-09T15:51:04.408Z,5.50
2023-05-09T15:53:31.256Z,5.53
2023-05-09T15:55:57.977Z,5.70
2023-05-09T15:58:24.840Z,5.03
2023-05-09T16:00:51.663Z,5.30
2023-05-09T16:03:18.919Z,5.07
2023-05-09T16:05:45.692Z,5.70
2023-05-09T16:08:12.573Z,5.83
2023-05-09T16:10:39.294Z,5.60
2023-05-09T16:13:06.757Z,5.47
2023-05-09T16:15:33.925Z,13.97
2023-05-09T16:18:00.556Z,72.23
2023-05-09T16:20:27.249Z,60.40
2023-05-09T16:22:53.890Z,60.87
2023-05-09T16:25:20.585Z,9.23
2023-05-09T16:27:47.315Z,5.73
2023-05-09T16:30:14.853Z,6.20
2023-05-09T16:32:42.436Z,5.93
2023-05-09T16:35:09.492Z,6.70
2023-05-09T16:37:36.487Z,6.10
2023-05-09T16:40:04.328Z,6.73
2023-05-09T16:42:31.422Z,5.43
2023-05-09T16:44:58.075Z,5.80
2023-05-09T16:47:24.862Z,5.07
2023-05-09T16:49:51.644Z,5.40
2023-05-09T16:52:18.407Z,5.47
2023-05-09T16:54:45.145Z,5.10
2023-05-09T16:57:11.967Z,4.70
2023-05-09T16:59:39.600Z,3.80
2023-05-09T17:02:06.432Z,4.27
2023-05-09T17:04:34.748Z,5.10
2023-05-09T17:07:02.684Z,4.40
2023-05-09T17:09:29.506Z,4.50
2023-05-09T17:11:56.479Z,5.23
2023-05-09T17:14:23.320Z,4.73
2023-05-09T17:16:50.333Z,4.90
2023-05-09T17:19:16.980Z,5.97
2023-05-09T17:21:44.166Z,5.70
2023-05-09T17:24:11.044Z,4.50
2023-05-09T17:26:38.619Z,4.23
2023-05-09T17:29:05.770Z,4.27
2023-05-09T17:31:32.610Z,4.70
2023-05-09T17:33:59.280Z,5.53
2023-05-09T17:36:26.159Z,6.43
2023-05-09T17:38:52.815Z,5.60
2023-05-09T17:41:19.525Z,6.90
2023-05-09T17:43:46.204Z,6.37
2023-05-09T17:46:14.728Z,7.10
2023-05-09T17:48:41.993Z,7.27
2023-05-09T17:51:09.077Z,8.30
2023-05-09T17:53:35.756Z,10.60
2023-05-09T17:56:02.461Z,10.03
2023-05-09T17:58:29.994Z,9.00
2023-05-09T18:00:58.520Z,12.80
2023-05-09T18:03:28.908Z,12.00
2023-05-09T18:05:55.924Z,8.33
2023-05-09T18:08:22.869Z,12.20
2023-05-09T18:10:49.814Z,5.30
2023-05-09T18:13:17.065Z,3.57
2023-05-09T18:15:43.845Z,3.60
2023-05-09T18:18:12.894Z,2.93
2023-05-09T18:20:42.092Z,3.37
2023-05-09T18:23:08.871Z,2.60
2023-05-09T18:25:35.873Z,2.93
2023-05-09T18:28:02.572Z,3.63
2023-05-09T18:30:29.310Z,3.73
2023-05-09T18:33:00.094Z,3.97
2023-05-09T18:35:26.903Z,4.60
2023-05-09T18:37:53.755Z,3.73
2023-05-09T18:40:20.420Z,5.83
2023-05-09T18:42:47.274Z,5.20
2023-05-09T18:45:14.152Z,5.87
2023-05-09T18:47:40.869Z,9.17
2023-05-09T18:50:08.101Z,4.73
2023-05-09T18:52:34.921Z,7.93
2023-05-09T18:55:01.663Z,5.60
2023-05-09T18:57:30.746Z,6.13
2023-05-09T18:59:58.142Z,5.03
2023-05-09T19:02:25.477Z,5.47
2023-05-09T19:04:52.429Z,6.03
2023-05-09T19:07:19.305Z,5.63
2023-05-09T19:09:46.080Z,4.27
2023-05-09T19:12:13.045Z,3.83
2023-05-09T19:14:40.102Z,4.00
2023-05-09T19:17:07.722Z,3.73
2023-05-09T19:19:34.575Z,3.20
2023-05-09T19:22:01.697Z,3.40
2023-05-09T19:24:28.590Z,3.23
2023-05-09T19:26:55.377Z,2.97
2023-05-09T19:29:22.097Z,3.87
2023-05-09T19:31:48.823Z,3.50
2023-05-09T19:34:15.567Z,3.47
2023-05-09T19:36:42.246Z,3.37
2023-05-09T19:39:09.149Z,3.30
2023-05-09T19:41:35.987Z,3.33
2023-05-09T19:44:02.945Z,2.70
2023-05-09T19:46:29.962Z,3.57
2023-05-09T19:48:56.938Z,2.70
2023-05-09T19:51:23.718Z,3.00
2023-05-09T19:53:50.653Z,3.50
2023-05-09T19:56:17.416Z,3.73
2023-05-09T19:58:44.384Z,3.50
2023-05-09T20:01:11.148Z,3.50
2023-05-09T20:03:40.642Z,3.03
2023-05-09T20:06:07.708Z,3.90
2023-05-09T20:08:34.686Z,2.83
2023-05-09T20:11:01.399Z,2.73
2023-05-09T20:13:28.367Z,3.60
2023-05-09T20:15:55.212Z,3.07
2023-05-09T20:18:21.922Z,3.30
2023-05-09T20:20:49.356Z,8.60
2023-05-09T20:23:16.229Z,11.20
2023-05-09T20:25:42.968Z,7.60
2023-05-09T20:28:11.763Z,8.13
2023-05-09T20:30:38.784Z,3.33
2023-05-09T20:33:05.572Z,3.87
2023-05-09T20:35:32.287Z,3.43
2023-05-09T20:37:58.949Z,3.47
2023-05-09T20:40:25.690Z,3.10
2023-05-09T20:42:53.432Z,3.70
2023-05-09T20:45:20.183Z,3.63
2023-05-09T20:47:46.876Z,4.17
2023-05-09T20:50:13.898Z,9.23
2023-05-09T20:52:40.893Z,28.47
2023-05-09T20:55:07.951Z,17.60
2023-05-09T20:57:34.678Z,11.23
2023-05-09T21:00:01.498Z,6.37
2023-05-09T21:02:28.580Z,4.83
2023-05-09T21:04:55.340Z,4.97
2023-05-09T21:07:22.311Z,5.97
2023-05-09T21:09:50.823Z,3.30
2023-05-09T21:12:17.507Z,2.97
2023-05-09T21:14:44.746Z,2.37
2023-05-09T21:17:11.797Z,3.03
2023-05-09T21:19:38.614Z,3.77
2023-05-09T21:22:05.457Z,2.60
2023-05-09T21:24:32.076Z,2.57
2023-05-09T21:26:58.789Z,2.83
2023-05-09T21:29:25.579Z,3.27
2023-05-09T21:31:52.824Z,2.50
2023-05-09T21:34:19.517Z,3.60
2023-05-09T21:36:46.234Z,2.20
2023-05-09T21:39:12.943Z,2.13
2023-05-09T21:41:40.459Z,2.60
2023-05-09T21:44:11.174Z,2.33
2023-05-09T21:46:38.338Z,2.10
2023-05-09T21:49:05.107Z,2.27
2023-05-09T21:51:33.257Z,2.47
2023-05-09T21:54:01.083Z,3.63
2023-05-09T21:56:27.867Z,2.47
2023-05-09T21:58:54.583Z,2.00
2023-05-09T22:01:21.323Z,2.27
2023-05-09T22:03:48.119Z,2.20
2023-05-09T22:06:14.885Z,2.00
2023-05-09T22:08:41.619Z,2.23
2023-05-09T22:11:08.452Z,2.30
2023-05-09T22:13:37.923Z,2.00
2023-05-09T22:16:04.947Z,2.80
2023-05-09T22:18:31.783Z,2.40
2023-05-09T22:20:58.948Z,2.03
2023-05-09T22:23:25.760Z,2.60
2023-05-09T22:25:52.459Z,2.50
2023-05-09T22:28:19.189Z,2.60
2023-05-09T22:30:45.872Z,2.77
2023-05-09T22:33:12.643Z,2.20
2023-05-09T22:35:39.512Z,2.07
2023-05-09T22:38:06.503Z,1.40
2023-05-09T22:40:33.926Z,1.50
2023-05-09T22:43:00.832Z,1.67
2023-05-09T22:45:27.621Z,1.47
2023-05-09T22:47:54.459Z,1.43
2023-05-09T22:50:21.338Z,1.60
2023-05-09T22:52:48.002Z,1.37
2023-05-09T22:55:14.868Z,1.40
2023-05-09T22:57:41.555Z,1.37
2023-05-09T23:00:09.134Z,1.27
2023-05-09T23:02:36.065Z,1.47
2023-05-09T23:05:03.528Z,1.00
2023-05-09T23:07:30.886Z,1.10
2023-05-09T23:09:57.621Z,1.00
2023-05-09T23:12:24.240Z,1.40
2023-05-09T23:14:50.864Z,1.30
2023-05-09T23:17:17.567Z,1.20
2023-05-09T23:19:44.231Z,1.70
2023-05-09T23:22:11.363Z,1.37
2023-05-09T23:24:38.028Z,1.40
2023-05-09T23:27:04.680Z,1.43
2023-05-09T23:29:31.309Z,2.00
2023-05-09T23:31:58.055Z,1.93
2023-05-09T23:34:25.355Z,1.50
2023-05-09T23:36:52.084Z,1.97
2023-05-09T23:39:19.810Z,2.23
2023-05-09T23:41:46.516Z,1.87
2023-05-09T23:44:13.192Z,2.00
2023-05-09T23:46:39.927Z,1.70
2023-05-09T23:49:07.234Z,1.70
2023-05-09T23:51:33.943Z,1.40
2023-05-09T23:54:00.809Z,1.60
2023-05-09T23:56:27.528Z,1.57
2023-05-09T23:58:54.222Z,1.67
